• Join FlightAware (Why Join?)
  • Login
  • US Flag 
11:42AM EDT


 

Airport Tracker/Info


-or-


 

Live Flight TrackerFlight Track Log ✈ SWA3497 ✈ 01-May-2013 ✈ KBWI - KALB

Flight Track Log - Related Links

Times and Time Zones

All times are in EDT time to prevent confusion due to time zone crossing. See the SWA3497 flight status page for this flight to view local times or setup timezone preferences in your user account.

Time Position Orientation Groundspeed Altitude Reporting Facility
EDT Latitude Longitude Course Direction KTS MPH feet Rate Location/Type
04:15PM 39.1500 -76.6500 142° Southeast 149 171 1,400  Level Potomac TRACON
04:16PM 39.1167 -76.6167 142° Southeast 210 242 3,700 2,460 Climbing Potomac TRACON
04:17PM 39.1000 -76.5500 108° East 235 270 6,400 2,520 Climbing Potomac TRACON
04:19PM 39.1258 -76.3433 81° East 271 312 11,900 2,880 Climbing Washington Center
04:20PM 39.1492 -76.2233 76° East 312 359 15,700 3,360 Climbing Washington Center
04:21PM 39.1708 -76.0761 79° East 359 413 18,700 2,940 Climbing Washington Center
04:22PM 39.1858 -75.9397 82° East 378 435 21,600 2,520 Climbing Washington Center
04:23PM 39.2403 -75.8194 60° Northeast 378 435 23,700 2,400 Climbing Washington Center
04:24PM 39.3197 -75.7150 45° Northeast 378 435 26,400 2,580 Climbing Washington Center
04:25PM 39.3989 -75.6158 44° Northeast 384 442 29,000 780 Climbing Washington Center
04:27PM 39.5706 -75.3925 45° Northeast 391 450 29,000  Level New York Center
04:28PM 39.6475 -75.2922 45° Northeast 391 450 29,000  Level New York Center
04:29PM 39.7203 -75.1889 48° Northeast 386 444 29,000  Level New York Center
04:30PM 39.7931 -75.0775 50° Northeast 386 444 29,000  Level New York Center
04:31PM 39.8675 -74.9764 46° Northeast 391 450 29,000  Level New York Center
04:32PM 39.9381 -74.8725 48° Northeast 391 450 29,000  Level New York Center
04:33PM 40.0125 -74.7711 46° Northeast 391 450 29,000  Level New York Center
04:34PM 40.0869 -74.6642 48° Northeast 391 450 29,000 -360 Level New York Center
04:35PM 40.1569 -74.5622 48° Northeast 386 444 28,400 -840 Descending New York Center
04:36PM 40.2222 -74.4733 46° Northeast 381 438 27,400 -1,020 Descending New York Center
04:37PM 40.3019 -74.3906 38° Northeast 366 421 26,400 -1,080 Descending New York Center
04:39PM 40.4672 -74.2103 40° Northeast 361 415 24,200 -780 Descending Boston Center
04:40PM 40.5433 -74.1278 39° Northeast 356 410 24,000 -120 Descending Boston Center
04:41PM 40.6156 -74.0478 40° Northeast 351 404 24,000  Level Boston Center
04:42PM 40.6936 -73.9731 36° Northeast 346 398 24,000  Level Boston Center
04:43PM 40.7675 -73.8897 40° Northeast 346 398 24,000  Level Boston Center
04:44PM 40.8417 -73.8064 40° Northeast 346 398 24,000 -120 Level Boston Center
04:45PM 40.9178 -73.7092 44° Northeast 346 398 23,800 -540 Descending Boston Center
04:46PM 40.9792 -73.6250 46° Northeast 346 398 23,000 -420 Descending Boston Center
04:47PM 41.0633 -73.5358 39° Northeast 346 398 23,000  Level Boston Center
04:48PM 41.1372 -73.4489 42° Northeast 346 398 23,000 -120 Level Boston Center
04:49PM 41.2289 -73.4419 North 323 372 22,800 -1,020 Descending Boston Center
04:50PM 41.3267 -73.4517 356° North 321 369 21,000 -1,980 Descending Boston Center
04:51PM 41.4225 -73.4617 356° North 333 383 18,900 -1,500 Descending Boston Center
04:52PM 41.5078 -73.4714 355° North 341 392 18,000 -420 Descending Boston Center
04:54PM 41.6119 -73.4814 356° North 347 399 18,000 -120 Level Boston Center
04:55PM 41.7286 -73.4886 357° North 347 399 17,800 -600 Descending Boston Center
04:56PM 41.8181 -73.4986 355° North 335 386 16,900 -1,380 Descending Boston Center
04:57PM 41.9078 -73.5083 355° North 322 371 14,800 -1,980 Descending Boston Center
04:57PM 41.9722 -73.5181 354° North 314 361 13,600 -2,280 Descending Boston Center
04:58PM 41.9972 -73.5156 North 312 359 13,000 -1,680 Descending Boston Center
04:59PM 42.0825 -73.5283 354° North 302 348 11,400 -1,020 Descending Boston Center
05:00PM 42.1681 -73.5186 North 315 362 11,000 -480 Descending Boston Center
05:01PM 42.2536 -73.5172 North 317 365 10,500 -780 Descending Boston Center
05:02PM 42.3303 -73.5494 343° North 285 328 9,500 -1,200 Descending Boston Center
05:03PM 42.4031 -73.5761 345° North 270 311 8,100 -1,320 Descending Boston Center
05:04PM 42.4758 -73.6028 345° North 270 311 6,900 -1,380 Descending Boston Center
05:05PM 42.5567 -73.6322 345° North 265 305 5,200 -960 Descending Boston Center
05:06PM 42.6253 -73.6561 346° North 268 308 5,000 -540 Descending Boston Center
05:07PM 42.6958 -73.6831 344° North 265 305 4,200 -720 Descending Boston Center
05:08PM 42.7622 -73.7042 347° North 242 278 3,600 -900 Descending Boston Center
05:09PM 42.8097 -73.7364 334° Northwest 180 207 2,400 -1,200 Descending Boston Center
05:10PM 42.8050 -73.8042 265° West 151 174 1,300 -960 Descending Boston Center
05:11PM 42.7694 -73.8089 186° South 129 148 500 -840 Descending Boston Center